sensor_id;sensor_type;location;lat;lon;timestamp;temperature;humidity
1405;DHT22;697;51.114;6.542;2023-04-24T00:00:48;13.00;91.70
1405;DHT22;697;51.114;6.542;2023-04-24T00:03:17;12.90;91.20
1405;DHT22;697;51.114;6.542;2023-04-24T00:05:46;12.90;91.40
1405;DHT22;697;51.114;6.542;2023-04-24T00:08:13;12.80;91.10
1405;DHT22;697;51.114;6.542;2023-04-24T00:10:40;12.70;91.20
1405;DHT22;697;51.114;6.542;2023-04-24T00:13:07;12.70;91.50
1405;DHT22;697;51.114;6.542;2023-04-24T00:15:34;12.60;91.70
1405;DHT22;697;51.114;6.542;2023-04-24T00:18:00;12.60;91.80
1405;DHT22;697;51.114;6.542;2023-04-24T00:20:29;12.60;91.90
1405;DHT22;697;51.114;6.542;2023-04-24T00:22:57;12.60;91.90
1405;DHT22;697;51.114;6.542;2023-04-24T00:25:24;12.60;92.00
1405;DHT22;697;51.114;6.542;2023-04-24T00:27:51;12.60;91.40
1405;DHT22;697;51.114;6.542;2023-04-24T00:30:18;12.50;91.20
1405;DHT22;697;51.114;6.542;2023-04-24T00:32:44;12.50;91.00
1405;DHT22;697;51.114;6.542;2023-04-24T00:35:11;12.50;90.80
1405;DHT22;697;51.114;6.542;2023-04-24T00:37:39;12.40;91.00
1405;DHT22;697;51.114;6.542;2023-04-24T00:40:07;12.40;91.10
1405;DHT22;697;51.114;6.542;2023-04-24T00:42:34;12.40;91.20
1405;DHT22;697;51.114;6.542;2023-04-24T00:45:01;12.50;91.20
1405;DHT22;697;51.114;6.542;2023-04-24T00:47:28;12.50;90.90
1405;DHT22;697;51.114;6.542;2023-04-24T00:49:55;12.40;91.00
1405;DHT22;697;51.114;6.542;2023-04-24T00:52:22;12.40;91.10
1405;DHT22;697;51.114;6.542;2023-04-24T00:54:51;12.40;91.10
1405;DHT22;697;51.114;6.542;2023-04-24T00:57:18;12.40;91.00
1405;DHT22;697;51.114;6.542;2023-04-24T00:59:44;12.30;91.00
1405;DHT22;697;51.114;6.542;2023-04-24T01:02:12;12.20;91.30
1405;DHT22;697;51.114;6.542;2023-04-24T01:04:41;12.00;91.50
1405;DHT22;697;51.114;6.542;2023-04-24T01:07:08;11.90;91.70
1405;DHT22;697;51.114;6.542;2023-04-24T01:09:37;11.90;92.30
1405;DHT22;697;51.114;6.542;2023-04-24T01:12:06;11.80;92.30
1405;DHT22;697;51.114;6.542;2023-04-24T01:14:33;11.70;92.50
1405;DHT22;697;51.114;6.542;2023-04-24T01:17:00;11.70;92.60
1405;DHT22;697;51.114;6.542;2023-04-24T01:19:27;11.60;93.00
1405;DHT22;697;51.114;6.542;2023-04-24T01:21:54;11.60;93.30
1405;DHT22;697;51.114;6.542;2023-04-24T01:24:25;11.60;93.20
1405;DHT22;697;51.114;6.542;2023-04-24T01:26:51;11.70;93.30
1405;DHT22;697;51.114;6.542;2023-04-24T01:29:18;11.60;93.40
1405;DHT22;697;51.114;6.542;2023-04-24T01:31:45;11.60;93.60
1405;DHT22;697;51.114;6.542;2023-04-24T01:34:12;11.60;93.40
1405;DHT22;697;51.114;6.542;2023-04-24T01:36:41;11.60;93.80
1405;DHT22;697;51.114;6.542;2023-04-24T01:39:08;11.60;93.80
1405;DHT22;697;51.114;6.542;2023-04-24T01:41:36;11.60;93.70
1405;DHT22;697;51.114;6.542;2023-04-24T01:44:02;11.50;94.10
1405;DHT22;697;51.114;6.542;2023-04-24T01:46:29;11.40;94.40
1405;DHT22;697;51.114;6.542;2023-04-24T01:48:59;11.40;94.90
1405;DHT22;697;51.114;6.542;2023-04-24T01:51:26;11.50;94.60
1405;DHT22;697;51.114;6.542;2023-04-24T01:53:52;11.50;94.70
1405;DHT22;697;51.114;6.542;2023-04-24T01:56:20;11.40;94.80
1405;DHT22;697;51.114;6.542;2023-04-24T01:58:49;11.50;94.80
1405;DHT22;697;51.114;6.542;2023-04-24T02:01:18;11.60;94.80
1405;DHT22;697;51.114;6.542;2023-04-24T02:03:45;11.60;94.70
1405;DHT22;697;51.114;6.542;2023-04-24T02:06:12;11.70;94.70
1405;DHT22;697;51.114;6.542;2023-04-24T02:08:38;11.80;94.60
1405;DHT22;697;51.114;6.542;2023-04-24T02:11:05;11.70;94.50
1405;DHT22;697;51.114;6.542;2023-04-24T02:13:32;11.80;94.50
1405;DHT22;697;51.114;6.542;2023-04-24T02:16:00;11.90;94.20
1405;DHT22;697;51.114;6.542;2023-04-24T02:18:27;11.90;94.30
1405;DHT22;697;51.114;6.542;2023-04-24T02:20:53;11.90;94.20
1405;DHT22;697;51.114;6.542;2023-04-24T02:23:20;11.90;94.10
1405;DHT22;697;51.114;6.542;2023-04-24T02:25:47;11.90;94.20
1405;DHT22;697;51.114;6.542;2023-04-24T02:28:14;11.80;94.10
1405;DHT22;697;51.114;6.542;2023-04-24T02:30:40;11.80;94.00
1405;DHT22;697;51.114;6.542;2023-04-24T02:33:08;11.80;94.20
1405;DHT22;697;51.114;6.542;2023-04-24T02:35:35;11.80;94.10
1405;DHT22;697;51.114;6.542;2023-04-24T02:38:02;11.80;94.40
1405;DHT22;697;51.114;6.542;2023-04-24T02:40:29;11.80;94.30
1405;DHT22;697;51.114;6.542;2023-04-24T02:42:56;11.80;94.20
1405;DHT22;697;51.114;6.542;2023-04-24T02:45:22;11.80;94.40
1405;DHT22;697;51.114;6.542;2023-04-24T02:47:49;11.70;94.30
1405;DHT22;697;51.114;6.542;2023-04-24T02:50:17;11.80;94.30
1405;DHT22;697;51.114;6.542;2023-04-24T02:52:44;11.70;94.20
1405;DHT22;697;51.114;6.542;2023-04-24T02:55:11;11.80;94.20
1405;DHT22;697;51.114;6.542;2023-04-24T02:57:38;11.80;94.10
1405;DHT22;697;51.114;6.542;2023-04-24T03:00:06;11.80;94.20
1405;DHT22;697;51.114;6.542;2023-04-24T03:02:34;11.90;94.10
1405;DHT22;697;51.114;6.542;2023-04-24T03:05:01;11.90;94.10
1405;DHT22;697;51.114;6.542;2023-04-24T03:07:30;11.80;94.20
1405;DHT22;697;51.114;6.542;2023-04-24T03:09:57;11.80;94.20
1405;DHT22;697;51.114;6.542;2023-04-24T03:12:24;11.80;94.20
1405;DHT22;697;51.114;6.542;2023-04-24T03:14:51;11.80;94.20
1405;DHT22;697;51.114;6.542;2023-04-24T03:17:18;11.80;94.20
1405;DHT22;697;51.114;6.542;2023-04-24T03:19:44;11.80;94.70
1405;DHT22;697;51.114;6.542;2023-04-24T03:22:11;11.80;94.40
1405;DHT22;697;51.114;6.542;2023-04-24T03:24:39;11.80;94.20
1405;DHT22;697;51.114;6.542;2023-04-24T03:27:06;11.90;94.10
1405;DHT22;697;51.114;6.542;2023-04-24T03:29:33;11.90;94.10
1405;DHT22;697;51.114;6.542;2023-04-24T03:32:00;11.90;94.20
1405;DHT22;697;51.114;6.542;2023-04-24T03:34:26;11.90;94.30
1405;DHT22;697;51.114;6.542;2023-04-24T03:36:53;11.80;94.10
1405;DHT22;697;51.114;6.542;2023-04-24T03:39:20;11.80;94.20
1405;DHT22;697;51.114;6.542;2023-04-24T03:41:48;11.80;94.20
1405;DHT22;697;51.114;6.542;2023-04-24T03:44:14;11.80;94.20
1405;DHT22;697;51.114;6.542;2023-04-24T03:46:41;11.80;94.30
1405;DHT22;697;51.114;6.542;2023-04-24T03:49:08;11.80;94.20
1405;DHT22;697;51.114;6.542;2023-04-24T03:51:34;11.70;94.10
1405;DHT22;697;51.114;6.542;2023-04-24T03:54:02;11.70;94.10
1405;DHT22;697;51.114;6.542;2023-04-24T03:56:29;11.70;94.40
1405;DHT22;697;51.114;6.542;2023-04-24T03:58:57;11.70;94.70
1405;DHT22;697;51.114;6.542;2023-04-24T04:01:23;11.70;94.90
1405;DHT22;697;51.114;6.542;2023-04-24T04:03:50;11.70;94.80
1405;DHT22;697;51.114;6.542;2023-04-24T04:06:17;11.70;94.90
1405;DHT22;697;51.114;6.542;2023-04-24T04:08:44;11.70;95.00
1405;DHT22;697;51.114;6.542;2023-04-24T04:11:11;11.70;95.20
1405;DHT22;697;51.114;6.542;2023-04-24T04:13:38;11.70;95.10
1405;DHT22;697;51.114;6.542;2023-04-24T04:16:06;11.70;95.10
1405;DHT22;697;51.114;6.542;2023-04-24T04:18:34;11.70;94.90
1405;DHT22;697;51.114;6.542;2023-04-24T04:21:01;11.70;94.60
1405;DHT22;697;51.114;6.542;2023-04-24T04:23:28;11.60;94.60
1405;DHT22;697;51.114;6.542;2023-04-24T04:25:55;11.70;94.80
1405;DHT22;697;51.114;6.542;2023-04-24T04:28:21;11.60;94.70
1405;DHT22;697;51.114;6.542;2023-04-24T04:30:50;11.60;94.70
1405;DHT22;697;51.114;6.542;2023-04-24T04:33:20;11.70;94.90
1405;DHT22;697;51.114;6.542;2023-04-24T04:35:47;11.70;95.00
1405;DHT22;697;51.114;6.542;2023-04-24T04:38:15;11.70;94.90
1405;DHT22;697;51.114;6.542;2023-04-24T04:40:42;11.70;94.70
1405;DHT22;697;51.114;6.542;2023-04-24T04:43:08;11.70;94.20
1405;DHT22;697;51.114;6.542;2023-04-24T04:45:35;11.60;94.60
1405;DHT22;697;51.114;6.542;2023-04-24T04:48:04;11.50;94.50
1405;DHT22;697;51.114;6.542;2023-04-24T04:50:34;11.50;94.70
1405;DHT22;697;51.114;6.542;2023-04-24T04:53:00;11.60;94.80
1405;DHT22;697;51.114;6.542;2023-04-24T04:55:27;11.60;94.50
1405;DHT22;697;51.114;6.542;2023-04-24T04:57:54;11.50;94.20
1405;DHT22;697;51.114;6.542;2023-04-24T05:00:21;11.50;94.60
1405;DHT22;697;51.114;6.542;2023-04-24T05:02:49;11.40;94.70
1405;DHT22;697;51.114;6.542;2023-04-24T05:05:16;11.40;95.30
1405;DHT22;697;51.114;6.542;2023-04-24T05:07:44;11.30;95.50
1405;DHT22;697;51.114;6.542;2023-04-24T05:10:11;11.30;95.80
1405;DHT22;697;51.114;6.542;2023-04-24T05:12:38;11.30;96.00
1405;DHT22;697;51.114;6.542;2023-04-24T05:15:06;11.30;96.50
1405;DHT22;697;51.114;6.542;2023-04-24T05:17:32;11.20;96.60
1405;DHT22;697;51.114;6.542;2023-04-24T05:19:59;11.20;97.10
1405;DHT22;697;51.114;6.542;2023-04-24T05:22:26;11.10;97.30
1405;DHT22;697;51.114;6.542;2023-04-24T05:24:54;11.10;97.90
1405;DHT22;697;51.114;6.542;2023-04-24T05:27:21;11.20;97.90
1405;DHT22;697;51.114;6.542;2023-04-24T05:29:48;11.10;98.30
1405;DHT22;697;51.114;6.542;2023-04-24T05:32:14;11.20;98.40
1405;DHT22;697;51.114;6.542;2023-04-24T05:34:41;11.20;98.30
1405;DHT22;697;51.114;6.542;2023-04-24T05:37:08;11.20;98.20
1405;DHT22;697;51.114;6.542;2023-04-24T05:39:35;11.10;98.00
1405;DHT22;697;51.114;6.542;2023-04-24T05:42:03;11.20;98.00
1405;DHT22;697;51.114;6.542;2023-04-24T05:44:30;11.20;97.50
1405;DHT22;697;51.114;6.542;2023-04-24T05:46:58;11.20;97.60
1405;DHT22;697;51.114;6.542;2023-04-24T05:49:26;11.10;97.90
1405;DHT22;697;51.114;6.542;2023-04-24T05:51:52;11.20;98.10
1405;DHT22;697;51.114;6.542;2023-04-24T05:54:19;11.20;98.00
1405;DHT22;697;51.114;6.542;2023-04-24T05:56:46;11.20;97.90
1405;DHT22;697;51.114;6.542;2023-04-24T05:59:14;11.20;97.90
1405;DHT22;697;51.114;6.542;2023-04-24T06:01:40;11.20;97.80
1405;DHT22;697;51.114;6.542;2023-04-24T06:04:07;11.20;97.80
1405;DHT22;697;51.114;6.542;2023-04-24T06:06:35;11.20;98.30
1405;DHT22;697;51.114;6.542;2023-04-24T06:09:01;11.10;98.50
1405;DHT22;697;51.114;6.542;2023-04-24T06:11:29;11.10;98.90
1405;DHT22;697;51.114;6.542;2023-04-24T06:13:56;11.10;99.00
1405;DHT22;697;51.114;6.542;2023-04-24T06:16:24;11.10;99.20
1405;DHT22;697;51.114;6.542;2023-04-24T06:18:50;11.00;99.70
1405;DHT22;697;51.114;6.542;2023-04-24T06:21:17;11.00;99.90
1405;DHT22;697;51.114;6.542;2023-04-24T06:23:44;11.10;99.90
1405;DHT22;697;51.114;6.542;2023-04-24T06:26:11;11.00;99.90
1405;DHT22;697;51.114;6.542;2023-04-24T06:28:38;11.00;99.90
1405;DHT22;697;51.114;6.542;2023-04-24T06:31:05;11.00;99.90
1405;DHT22;697;51.114;6.542;2023-04-24T06:33:33;10.90;99.90
1405;DHT22;697;51.114;6.542;2023-04-24T06:35:59;11.00;99.90
1405;DHT22;697;51.114;6.542;2023-04-24T06:38:26;10.90;99.90
1405;DHT22;697;51.114;6.542;2023-04-24T06:40:55;10.80;99.90
1405;DHT22;697;51.114;6.542;2023-04-24T06:43:21;10.80;99.90
1405;DHT22;697;51.114;6.542;2023-04-24T06:45:48;10.80;99.90
1405;DHT22;697;51.114;6.542;2023-04-24T06:48:15;10.80;99.90
1405;DHT22;697;51.114;6.542;2023-04-24T06:50:43;10.70;99.90
1405;DHT22;697;51.114;6.542;2023-04-24T06:53:10;10.60;99.90
1405;DHT22;697;51.114;6.542;2023-04-24T06:55:39;10.50;99.90
1405;DHT22;697;51.114;6.542;2023-04-24T06:58:06;10.50;99.90
1405;DHT22;697;51.114;6.542;2023-04-24T07:00:33;10.40;99.90
1405;DHT22;697;51.114;6.542;2023-04-24T07:03:00;10.40;99.90
1405;DHT22;697;51.114;6.542;2023-04-24T07:05:26;10.30;99.90
1405;DHT22;697;51.114;6.542;2023-04-24T07:07:54;10.30;99.90
1405;DHT22;697;51.114;6.542;2023-04-24T07:10:23;10.20;99.90
1405;DHT22;697;51.114;6.542;2023-04-24T07:12:52;10.20;99.90
1405;DHT22;697;51.114;6.542;2023-04-24T07:15:19;10.20;99.90
1405;DHT22;697;51.114;6.542;2023-04-24T07:17:46;10.20;99.90
1405;DHT22;697;51.114;6.542;2023-04-24T07:20:13;10.20;99.90
1405;DHT22;697;51.114;6.542;2023-04-24T07:22:41;10.10;99.90
1405;DHT22;697;51.114;6.542;2023-04-24T07:25:09;10.10;99.90
1405;DHT22;697;51.114;6.542;2023-04-24T07:27:36;9.90;99.90
1405;DHT22;697;51.114;6.542;2023-04-24T07:30:04;9.80;99.90
1405;DHT22;697;51.114;6.542;2023-04-24T07:32:32;9.60;99.90
1405;DHT22;697;51.114;6.542;2023-04-24T07:34:59;9.40;99.90
1405;DHT22;697;51.114;6.542;2023-04-24T07:37:25;9.30;99.90
1405;DHT22;697;51.114;6.542;2023-04-24T07:39:52;9.20;99.90
1405;DHT22;697;51.114;6.542;2023-04-24T07:42:20;9.10;99.90
1405;DHT22;697;51.114;6.542;2023-04-24T07:44:47;9.00;99.90
1405;DHT22;697;51.114;6.542;2023-04-24T07:47:13;9.00;99.90
1405;DHT22;697;51.114;6.542;2023-04-24T07:49:41;8.90;99.90
1405;DHT22;697;51.114;6.542;2023-04-24T07:52:08;8.90;99.90
1405;DHT22;697;51.114;6.542;2023-04-24T07:54:34;8.90;99.90
1405;DHT22;697;51.114;6.542;2023-04-24T07:57:02;8.90;99.90
1405;DHT22;697;51.114;6.542;2023-04-24T07:59:30;9.00;99.90
1405;DHT22;697;51.114;6.542;2023-04-24T08:01:57;9.00;99.90
1405;DHT22;697;51.114;6.542;2023-04-24T08:04:24;9.10;99.90
1405;DHT22;697;51.114;6.542;2023-04-24T08:06:50;9.10;99.90
1405;DHT22;697;51.114;6.542;2023-04-24T08:09:17;9.20;99.90
1405;DHT22;697;51.114;6.542;2023-04-24T08:11:44;9.30;99.90
1405;DHT22;697;51.114;6.542;2023-04-24T08:14:10;9.30;99.90
1405;DHT22;697;51.114;6.542;2023-04-24T08:16:40;9.30;99.90
1405;DHT22;697;51.114;6.542;2023-04-24T08:19:07;9.30;99.90
1405;DHT22;697;51.114;6.542;2023-04-24T08:21:33;9.40;99.90
1405;DHT22;697;51.114;6.542;2023-04-24T08:24:00;9.40;99.90
1405;DHT22;697;51.114;6.542;2023-04-24T08:26:30;9.30;99.90
1405;DHT22;697;51.114;6.542;2023-04-24T08:28:57;9.30;99.90
1405;DHT22;697;51.114;6.542;2023-04-24T08:31:24;9.30;99.90
1405;DHT22;697;51.114;6.542;2023-04-24T08:33:52;9.30;99.90
1405;DHT22;697;51.114;6.542;2023-04-24T08:36:19;9.30;99.90
1405;DHT22;697;51.114;6.542;2023-04-24T08:38:46;9.30;99.90
1405;DHT22;697;51.114;6.542;2023-04-24T08:41:14;9.20;99.90
1405;DHT22;697;51.114;6.542;2023-04-24T08:43:41;9.20;99.90
1405;DHT22;697;51.114;6.542;2023-04-24T08:46:09;9.20;99.90
1405;DHT22;697;51.114;6.542;2023-04-24T08:48:38;9.20;99.90
1405;DHT22;697;51.114;6.542;2023-04-24T08:51:07;9.30;99.90
1405;DHT22;697;51.114;6.542;2023-04-24T08:53:34;9.30;99.90
1405;DHT22;697;51.114;6.542;2023-04-24T08:56:02;9.30;99.90
1405;DHT22;697;51.114;6.542;2023-04-24T08:58:29;9.30;99.90
1405;DHT22;697;51.114;6.542;2023-04-24T09:00:57;9.30;99.90
1405;DHT22;697;51.114;6.542;2023-04-24T09:03:24;9.40;99.90
1405;DHT22;697;51.114;6.542;2023-04-24T09:05:54;9.40;99.90
1405;DHT22;697;51.114;6.542;2023-04-24T09:08:25;9.40;99.90
1405;DHT22;697;51.114;6.542;2023-04-24T09:10:52;9.50;99.90
1405;DHT22;697;51.114;6.542;2023-04-24T09:13:18;9.50;99.90
1405;DHT22;697;51.114;6.542;2023-04-24T09:15:46;9.50;99.90
1405;DHT22;697;51.114;6.542;2023-04-24T09:18:13;9.50;99.90
1405;DHT22;697;51.114;6.542;2023-04-24T09:20:57;9.50;99.90
1405;DHT22;697;51.114;6.542;2023-04-24T09:23:27;9.60;99.90
1405;DHT22;697;51.114;6.542;2023-04-24T09:25:55;9.70;99.90
1405;DHT22;697;51.114;6.542;2023-04-24T09:28:25;9.80;99.90
1405;DHT22;697;51.114;6.542;2023-04-24T09:31:03;9.90;99.90
1405;DHT22;697;51.114;6.542;2023-04-24T09:33:30;9.90;99.90
1405;DHT22;697;51.114;6.542;2023-04-24T09:35:56;10.00;99.90
1405;DHT22;697;51.114;6.542;2023-04-24T09:38:32;10.00;99.90
1405;DHT22;697;51.114;6.542;2023-04-24T09:41:00;10.10;99.90
1405;DHT22;697;51.114;6.542;2023-04-24T09:43:28;10.20;99.90
1405;DHT22;697;51.114;6.542;2023-04-24T09:45:56;10.30;99.90
1405;DHT22;697;51.114;6.542;2023-04-24T09:48:31;10.30;99.90
1405;DHT22;697;51.114;6.542;2023-04-24T09:50:57;10.30;99.90
1405;DHT22;697;51.114;6.542;2023-04-24T09:53:24;10.40;99.90
1405;DHT22;697;51.114;6.542;2023-04-24T09:55:53;10.50;99.90
1405;DHT22;697;51.114;6.542;2023-04-24T09:58:24;10.60;99.90
1405;DHT22;697;51.114;6.542;2023-04-24T10:00:53;10.60;99.90
1405;DHT22;697;51.114;6.542;2023-04-24T10:03:24;10.60;99.90
1405;DHT22;697;51.114;6.542;2023-04-24T10:05:52;10.80;99.90
1405;DHT22;697;51.114;6.542;2023-04-24T10:08:19;11.00;99.90
1405;DHT22;697;51.114;6.542;2023-04-24T10:10:47;11.10;99.90
1405;DHT22;697;51.114;6.542;2023-04-24T10:13:15;11.20;99.90
1405;DHT22;697;51.114;6.542;2023-04-24T10:15:42;11.20;99.90
1405;DHT22;697;51.114;6.542;2023-04-24T10:18:10;11.10;99.90
1405;DHT22;697;51.114;6.542;2023-04-24T10:20:38;10.90;99.90
1405;DHT22;697;51.114;6.542;2023-04-24T10:23:05;10.90;99.90
1405;DHT22;697;51.114;6.542;2023-04-24T10:25:34;10.80;99.90
1405;DHT22;697;51.114;6.542;2023-04-24T10:28:01;10.80;99.90
1405;DHT22;697;51.114;6.542;2023-04-24T10:30:31;10.80;99.90
1405;DHT22;697;51.114;6.542;2023-04-24T10:33:00;10.70;99.90
1405;DHT22;697;51.114;6.542;2023-04-24T10:35:30;10.60;99.90
1405;DHT22;697;51.114;6.542;2023-04-24T10:38:01;10.70;99.90
1405;DHT22;697;51.114;6.542;2023-04-24T10:40:31;10.70;99.90
1405;DHT22;697;51.114;6.542;2023-04-24T10:42:59;10.70;99.90
1405;DHT22;697;51.114;6.542;2023-04-24T10:45:26;10.60;99.90
1405;DHT22;697;51.114;6.542;2023-04-24T10:47:57;10.60;99.90
1405;DHT22;697;51.114;6.542;2023-04-24T10:50:26;10.60;99.90
1405;DHT22;697;51.114;6.542;2023-04-24T10:52:53;10.70;99.90
1405;DHT22;697;51.114;6.542;2023-04-24T10:55:41;10.90;99.90
1405;DHT22;697;51.114;6.542;2023-04-24T10:58:08;10.90;99.90
1405;DHT22;697;51.114;6.542;2023-04-24T11:00:36;11.00;99.90
1405;DHT22;697;51.114;6.542;2023-04-24T11:03:06;11.20;99.90
1405;DHT22;697;51.114;6.542;2023-04-24T11:05:50;11.50;99.90
1405;DHT22;697;51.114;6.542;2023-04-24T11:08:26;12.00;99.90
1405;DHT22;697;51.114;6.542;2023-04-24T11:11:11;12.50;99.90
1405;DHT22;697;51.114;6.542;2023-04-24T11:14:09;13.30;98.80
1405;DHT22;697;51.114;6.542;2023-04-24T11:16:42;14.60;96.80
1405;DHT22;697;51.114;6.542;2023-04-24T11:19:21;15.10;93.90
1405;DHT22;697;51.114;6.542;2023-04-24T11:21:55;15.20;92.70
1405;DHT22;697;51.114;6.542;2023-04-24T11:24:38;15.20;92.20
1405;DHT22;697;51.114;6.542;2023-04-24T11:27:07;15.60;92.20
1405;DHT22;697;51.114;6.542;2023-04-24T11:29:44;15.50;90.80
1405;DHT22;697;51.114;6.542;2023-04-24T11:32:19;15.00;90.00
1405;DHT22;697;51.114;6.542;2023-04-24T11:34:48;14.40;91.40
1405;DHT22;697;51.114;6.542;2023-04-24T11:37:15;13.80;91.50
1405;DHT22;697;51.114;6.542;2023-04-24T11:39:42;13.50;92.20
1405;DHT22;697;51.114;6.542;2023-04-24T11:42:09;13.00;92.60
1405;DHT22;697;51.114;6.542;2023-04-24T11:44:36;12.60;92.70
1405;DHT22;697;51.114;6.542;2023-04-24T11:47:04;12.40;94.00
1405;DHT22;697;51.114;6.542;2023-04-24T11:49:30;12.40;94.30
1405;DHT22;697;51.114;6.542;2023-04-24T11:51:59;12.40;93.70
1405;DHT22;697;51.114;6.542;2023-04-24T11:54:26;12.40;94.60
1405;DHT22;697;51.114;6.542;2023-04-24T11:56:53;12.40;93.30
1405;DHT22;697;51.114;6.542;2023-04-24T11:59:21;12.30;93.20
1405;DHT22;697;51.114;6.542;2023-04-24T12:01:48;12.40;93.40
1405;DHT22;697;51.114;6.542;2023-04-24T12:04:17;12.50;93.30
1405;DHT22;697;51.114;6.542;2023-04-24T12:09:44;12.70;92.40
1405;DHT22;697;51.114;6.542;2023-04-24T12:12:12;13.20;91.20
1405;DHT22;697;51.114;6.542;2023-04-24T12:14:47;13.60;89.80
1405;DHT22;697;51.114;6.542;2023-04-24T12:17:15;13.80;89.80
1405;DHT22;697;51.114;6.542;2023-04-24T12:19:46;13.80;88.30
1405;DHT22;697;51.114;6.542;2023-04-24T12:22:13;13.80;86.70
1405;DHT22;697;51.114;6.542;2023-04-24T12:24:57;13.60;86.20
1405;DHT22;697;51.114;6.542;2023-04-24T12:27:24;13.60;88.00
1405;DHT22;697;51.114;6.542;2023-04-24T12:29:55;13.70;89.40
1405;DHT22;697;51.114;6.542;2023-04-24T12:32:22;13.80;89.30
1405;DHT22;697;51.114;6.542;2023-04-24T12:34:49;14.30;87.60
1405;DHT22;697;51.114;6.542;2023-04-24T12:37:16;15.10;81.50
1405;DHT22;697;51.114;6.542;2023-04-24T12:39:59;15.80;75.30
1405;DHT22;697;51.114;6.542;2023-04-24T12:42:26;15.80;72.90
1405;DHT22;697;51.114;6.542;2023-04-24T12:44:56;15.30;73.60
1405;DHT22;697;51.114;6.542;2023-04-24T12:47:24;14.80;75.20
1405;DHT22;697;51.114;6.542;2023-04-24T12:49:50;14.40;77.40
1405;DHT22;697;51.114;6.542;2023-04-24T12:52:17;14.30;79.80
1405;DHT22;697;51.114;6.542;2023-04-24T12:54:45;14.10;78.80
1405;DHT22;697;51.114;6.542;2023-04-24T12:57:13;14.00;81.20
1405;DHT22;697;51.114;6.542;2023-04-24T12:59:40;13.90;83.70
1405;DHT22;697;51.114;6.542;2023-04-24T13:02:07;13.80;82.80
1405;DHT22;697;51.114;6.542;2023-04-24T13:04:34;13.60;80.60
1405;DHT22;697;51.114;6.542;2023-04-24T13:07:01;14.00;81.20
1405;DHT22;697;51.114;6.542;2023-04-24T13:09:28;15.00;80.00
1405;DHT22;697;51.114;6.542;2023-04-24T13:11:55;16.00;71.20
1405;DHT22;697;51.114;6.542;2023-04-24T13:14:23;16.40;65.70
1405;DHT22;697;51.114;6.542;2023-04-24T13:16:50;16.70;66.50
1405;DHT22;697;51.114;6.542;2023-04-24T13:19:17;16.30;61.60
1405;DHT22;697;51.114;6.542;2023-04-24T13:21:44;15.80;63.10
1405;DHT22;697;51.114;6.542;2023-04-24T13:24:11;15.60;62.80
1405;DHT22;697;51.114;6.542;2023-04-24T13:26:38;15.40;67.10
1405;DHT22;697;51.114;6.542;2023-04-24T13:29:05;15.00;66.70
1405;DHT22;697;51.114;6.542;2023-04-24T13:31:33;14.80;67.70
1405;DHT22;697;51.114;6.542;2023-04-24T13:33:59;14.80;69.40
1405;DHT22;697;51.114;6.542;2023-04-24T13:36:26;15.00;68.40
1405;DHT22;697;51.114;6.542;2023-04-24T13:38:53;15.20;68.00
1405;DHT22;697;51.114;6.542;2023-04-24T13:41:19;14.80;69.40
1405;DHT22;697;51.114;6.542;2023-04-24T13:43:46;14.70;71.90
1405;DHT22;697;51.114;6.542;2023-04-24T13:46:13;14.60;72.00
1405;DHT22;697;51.114;6.542;2023-04-24T13:48:41;14.40;72.10
1405;DHT22;697;51.114;6.542;2023-04-24T13:51:08;14.30;73.80
1405;DHT22;697;51.114;6.542;2023-04-24T13:53:35;14.20;76.00
1405;DHT22;697;51.114;6.542;2023-04-24T13:56:04;14.30;76.80
1405;DHT22;697;51.114;6.542;2023-04-24T13:58:31;14.50;75.40
1405;DHT22;697;51.114;6.542;2023-04-24T14:00:57;14.80;76.70
1405;DHT22;697;51.114;6.542;2023-04-24T14:03:24;15.20;76.40
1405;DHT22;697;51.114;6.542;2023-04-24T14:05:52;15.50;76.40
1405;DHT22;697;51.114;6.542;2023-04-24T14:08:19;15.40;72.70
1405;DHT22;697;51.114;6.542;2023-04-24T14:10:45;15.20;70.30
1405;DHT22;697;51.114;6.542;2023-04-24T14:13:12;14.90;70.20
1405;DHT22;697;51.114;6.542;2023-04-24T14:15:39;14.60;71.50
1405;DHT22;697;51.114;6.542;2023-04-24T14:18:06;14.70;73.20
1405;DHT22;697;51.114;6.542;2023-04-24T14:20:33;14.70;71.40
1405;DHT22;697;51.114;6.542;2023-04-24T14:23:01;14.80;71.00
1405;DHT22;697;51.114;6.542;2023-04-24T14:25:28;14.90;72.10
1405;DHT22;697;51.114;6.542;2023-04-24T14:27:55;15.20;70.50
1405;DHT22;697;51.114;6.542;2023-04-24T14:30:22;15.90;66.10
1405;DHT22;697;51.114;6.542;2023-04-24T14:32:49;16.80;66.50
1405;DHT22;697;51.114;6.542;2023-04-24T14:35:16;18.20;59.10
1405;DHT22;697;51.114;6.542;2023-04-24T14:37:42;19.20;55.70
1405;DHT22;697;51.114;6.542;2023-04-24T14:40:11;20.10;54.40
1405;DHT22;697;51.114;6.542;2023-04-24T14:42:37;20.50;52.40
1405;DHT22;697;51.114;6.542;2023-04-24T14:45:05;20.90;46.80
1405;DHT22;697;51.114;6.542;2023-04-24T14:47:33;21.00;47.10
1405;DHT22;697;51.114;6.542;2023-04-24T14:50:00;20.60;49.60
1405;DHT22;697;51.114;6.542;2023-04-24T14:52:26;20.40;48.90
1405;DHT22;697;51.114;6.542;2023-04-24T14:54:53;20.00;49.40
1405;DHT22;697;51.114;6.542;2023-04-24T14:57:22;19.80;48.00
1405;DHT22;697;51.114;6.542;2023-04-24T14:59:48;19.80;47.80
1405;DHT22;697;51.114;6.542;2023-04-24T15:02:15;20.40;48.10
1405;DHT22;697;51.114;6.542;2023-04-24T15:04:42;21.30;44.50
1405;DHT22;697;51.114;6.542;2023-04-24T15:07:09;21.80;43.60
1405;DHT22;697;51.114;6.542;2023-04-24T15:09:35;22.10;42.60
1405;DHT22;697;51.114;6.542;2023-04-24T15:12:02;22.60;42.40
1405;DHT22;697;51.114;6.542;2023-04-24T15:14:30;22.60;41.10
1405;DHT22;697;51.114;6.542;2023-04-24T15:16:57;22.60;40.80
1405;DHT22;697;51.114;6.542;2023-04-24T15:19:23;22.10;40.70
1405;DHT22;697;51.114;6.542;2023-04-24T15:21:50;21.00;41.80
1405;DHT22;697;51.114;6.542;2023-04-24T15:24:17;20.00;43.90
1405;DHT22;697;51.114;6.542;2023-04-24T15:26:44;19.70;45.40
1405;DHT22;697;51.114;6.542;2023-04-24T15:29:10;19.40;45.40
1405;DHT22;697;51.114;6.542;2023-04-24T15:31:38;18.90;46.00
1405;DHT22;697;51.114;6.542;2023-04-24T15:34:05;18.70;46.80
1405;DHT22;697;51.114;6.542;2023-04-24T15:36:32;18.80;48.00
1405;DHT22;697;51.114;6.542;2023-04-24T15:39:00;18.70;45.50
1405;DHT22;697;51.114;6.542;2023-04-24T15:41:27;18.40;47.00
1405;DHT22;697;51.114;6.542;2023-04-24T15:43:54;17.90;48.30
1405;DHT22;697;51.114;6.542;2023-04-24T15:46:20;17.30;50.30
1405;DHT22;697;51.114;6.542;2023-04-24T15:48:48;16.80;50.60
1405;DHT22;697;51.114;6.542;2023-04-24T15:51:15;16.80;51.60
1405;DHT22;697;51.114;6.542;2023-04-24T15:53:42;17.10;52.20
1405;DHT22;697;51.114;6.542;2023-04-24T15:56:08;17.20;51.30
1405;DHT22;697;51.114;6.542;2023-04-24T15:58:35;17.00;51.00
1405;DHT22;697;51.114;6.542;2023-04-24T16:01:02;16.60;51.40
1405;DHT22;697;51.114;6.542;2023-04-24T16:03:29;16.10;52.70
1405;DHT22;697;51.114;6.542;2023-04-24T16:05:57;15.90;54.20
1405;DHT22;697;51.114;6.542;2023-04-24T16:08:24;15.60;54.40
1405;DHT22;697;51.114;6.542;2023-04-24T16:10:51;15.50;55.50
1405;DHT22;697;51.114;6.542;2023-04-24T16:13:17;15.50;56.40
1405;DHT22;697;51.114;6.542;2023-04-24T16:15:44;15.70;56.60
1405;DHT22;697;51.114;6.542;2023-04-24T16:18:11;15.80;54.70
1405;DHT22;697;51.114;6.542;2023-04-24T16:20:38;15.90;54.20
1405;DHT22;697;51.114;6.542;2023-04-24T16:23:06;15.80;53.70
1405;DHT22;697;51.114;6.542;2023-04-24T16:25:33;15.70;54.70